sensor_id;sensor_type;location;lat;lon;timestamp;pressure;altitude;pressure_sealevel;temperature;humidity
14253;BME280;7210;51.502;10.722;2022-07-29T00:01:13;99945.84;;;16.41;78.55
14253;BME280;7210;51.502;10.722;2022-07-29T00:03:43;99944.44;;;16.33;78.94
14253;BME280;7210;51.502;10.722;2022-07-29T00:06:11;99945.06;;;16.40;79.19
14253;BME280;7210;51.502;10.722;2022-07-29T00:08:39;99948.78;;;16.39;79.20
14253;BME280;7210;51.502;10.722;2022-07-29T00:11:06;99939.72;;;16.40;79.21
14253;BME280;7210;51.502;10.722;2022-07-29T00:13:33;99935.44;;;16.39;79.43
14253;BME280;7210;51.502;10.722;2022-07-29T00:16:00;99932.25;;;16.42;79.23
14253;BME280;7210;51.502;10.722;2022-07-29T00:18:27;99925.91;;;16.48;78.79
14253;BME280;7210;51.502;10.722;2022-07-29T00:20:56;99915.22;;;16.48;78.88
14253;BME280;7210;51.502;10.722;2022-07-29T00:23:23;99913.63;;;16.47;79.05
14253;BME280;7210;51.502;10.722;2022-07-29T00:25:51;99909.34;;;16.46;79.25
14253;BME280;7210;51.502;10.722;2022-07-29T00:28:18;99899.19;;;16.48;79.18
14253;BME280;7210;51.502;10.722;2022-07-29T00:30:45;99880.75;;;16.47;78.92
14253;BME280;7210;51.502;10.722;2022-07-29T00:33:12;99891.44;;;16.47;79.26
14253;BME280;7210;51.502;10.722;2022-07-29T00:35:39;99884.22;;;16.42;79.52
14253;BME280;7210;51.502;10.722;2022-07-29T00:38:16;99889.00;;;16.45;79.78
14253;BME280;7210;51.502;10.722;2022-07-29T00:40:44;99891.09;;;16.38;80.16
14253;BME280;7210;51.502;10.722;2022-07-29T00:43:14;99888.13;;;16.35;80.33
14253;BME280;7210;51.502;10.722;2022-07-29T00:45:42;99884.16;;;16.37;80.43
14253;BME280;7210;51.502;10.722;2022-07-29T00:48:09;99883.69;;;16.45;80.43
14253;BME280;7210;51.502;10.722;2022-07-29T00:50:39;99871.91;;;16.41;80.27
14253;BME280;7210;51.502;10.722;2022-07-29T00:53:07;99875.66;;;16.40;80.73
14253;BME280;7210;51.502;10.722;2022-07-29T00:55:36;99869.66;;;16.28;81.49
14253;BME280;7210;51.502;10.722;2022-07-29T00:58:04;99865.63;;;16.26;81.85
14253;BME280;7210;51.502;10.722;2022-07-29T01:00:32;99858.69;;;16.20;82.02
14253;BME280;7210;51.502;10.722;2022-07-29T01:02:59;99859.94;;;16.12;82.29
14253;BME280;7210;51.502;10.722;2022-07-29T01:05:28;99850.56;;;16.05;82.60
14253;BME280;7210;51.502;10.722;2022-07-29T01:07:57;99850.22;;;15.96;83.10
14253;BME280;7210;51.502;10.722;2022-07-29T01:10:26;99845.34;;;15.88;83.50
14253;BME280;7210;51.502;10.722;2022-07-29T01:12:59;99841.03;;;15.82;83.85
14253;BME280;7210;51.502;10.722;2022-07-29T01:15:28;99841.50;;;15.74;83.94
14253;BME280;7210;51.502;10.722;2022-07-29T01:18:03;99830.75;;;15.64;83.89
14253;BME280;7210;51.502;10.722;2022-07-29T01:21:00;99837.84;;;15.54;84.51
14253;BME280;7210;51.502;10.722;2022-07-29T01:23:56;99829.94;;;15.37;85.19
14253;BME280;7210;51.502;10.722;2022-07-29T01:26:36;99830.63;;;15.28;85.63
14253;BME280;7210;51.502;10.722;2022-07-29T01:29:19;99826.53;;;15.20;85.91
14253;BME280;7210;51.502;10.722;2022-07-29T01:31:56;99815.28;;;15.13;86.38
14253;BME280;7210;51.502;10.722;2022-07-29T01:34:42;99803.53;;;15.10;86.60
14253;BME280;7210;51.502;10.722;2022-07-29T01:37:22;99806.66;;;15.02;87.15
14253;BME280;7210;51.502;10.722;2022-07-29T01:39:55;99797.53;;;14.98;87.29
14253;BME280;7210;51.502;10.722;2022-07-29T01:42:29;99802.81;;;14.93;87.78
14253;BME280;7210;51.502;10.722;2022-07-29T01:45:08;99797.66;;;14.86;88.26
14253;BME280;7210;51.502;10.722;2022-07-29T01:47:43;99789.94;;;14.85;88.77
14253;BME280;7210;51.502;10.722;2022-07-29T01:50:17;99792.03;;;14.83;89.03
14253;BME280;7210;51.502;10.722;2022-07-29T01:52:52;99790.75;;;14.85;89.13
14253;BME280;7210;51.502;10.722;2022-07-29T01:55:25;99792.66;;;14.90;89.37
14253;BME280;7210;51.502;10.722;2022-07-29T01:57:56;99794.78;;;14.88;89.71
14253;BME280;7210;51.502;10.722;2022-07-29T02:00:27;99785.72;;;14.89;89.80
14253;BME280;7210;51.502;10.722;2022-07-29T02:02:58;99786.84;;;14.93;89.78
14253;BME280;7210;51.502;10.722;2022-07-29T02:05:28;99775.69;;;14.96;90.08
14253;BME280;7210;51.502;10.722;2022-07-29T02:11:02;99777.28;;;14.97;89.78
14253;BME280;7210;51.502;10.722;2022-07-29T02:13:34;99776.22;;;14.98;89.88
14253;BME280;7210;51.502;10.722;2022-07-29T02:16:07;99780.50;;;14.99;90.01
14253;BME280;7210;51.502;10.722;2022-07-29T02:21:51;99770.44;;;15.01;89.71
14253;BME280;7210;51.502;10.722;2022-07-29T02:24:22;99764.53;;;14.99;89.74
14253;BME280;7210;51.502;10.722;2022-07-29T02:26:52;99764.53;;;14.99;89.85
14253;BME280;7210;51.502;10.722;2022-07-29T02:29:23;99754.38;;;14.96;90.10
14253;BME280;7210;51.502;10.722;2022-07-29T02:31:55;99758.09;;;14.95;90.43
14253;BME280;7210;51.502;10.722;2022-07-29T02:34:25;99750.66;;;14.97;90.54
14253;BME280;7210;51.502;10.722;2022-07-29T02:36:55;99758.09;;;14.95;90.67
14253;BME280;7210;51.502;10.722;2022-07-29T02:39:25;99752.25;;;14.98;90.71
14253;BME280;7210;51.502;10.722;2022-07-29T02:42:00;99743.13;;;14.89;90.88
14253;BME280;7210;51.502;10.722;2022-07-29T02:44:29;99749.56;;;14.93;90.95
14253;BME280;7210;51.502;10.722;2022-07-29T02:47:07;99752.47;;;14.91;91.43
14253;BME280;7210;51.502;10.722;2022-07-29T02:49:40;99750.63;;;14.92;91.71
14253;BME280;7210;51.502;10.722;2022-07-29T02:52:17;99749.56;;;14.93;91.70
14253;BME280;7210;51.502;10.722;2022-07-29T02:54:53;99752.25;;;14.93;91.60
14253;BME280;7210;51.502;10.722;2022-07-29T02:57:30;99752.78;;;14.95;91.82
14253;BME280;7210;51.502;10.722;2022-07-29T03:00:03;99744.25;;;14.93;91.66
14253;BME280;7210;51.502;10.722;2022-07-29T03:02:36;99733.53;;;14.88;91.05
14253;BME280;7210;51.502;10.722;2022-07-29T03:05:09;99745.31;;;14.92;91.04
14253;BME280;7210;51.502;10.722;2022-07-29T03:07:40;99740.53;;;14.94;90.83
14253;BME280;7210;51.502;10.722;2022-07-29T03:10:09;99732.00;;;14.92;90.66
14253;BME280;7210;51.502;10.722;2022-07-29T03:12:37;99730.41;;;14.96;90.54
14253;BME280;7210;51.502;10.722;2022-07-29T03:15:06;99722.94;;;14.93;90.63
14253;BME280;7210;51.502;10.722;2022-07-29T03:17:36;99727.25;;;14.99;91.20
14253;BME280;7210;51.502;10.722;2022-07-29T03:20:07;99723.84;;;15.03;91.16
14253;BME280;7210;51.502;10.722;2022-07-29T03:22:39;99722.03;;;15.09;90.81
14253;BME280;7210;51.502;10.722;2022-07-29T03:25:10;99707.66;;;15.10;90.45
14253;BME280;7210;51.502;10.722;2022-07-29T03:27:37;99714.06;;;15.13;90.10
14253;BME280;7210;51.502;10.722;2022-07-29T03:30:07;99705.53;;;15.12;90.24
14253;BME280;7210;51.502;10.722;2022-07-29T03:32:36;99702.94;;;15.17;90.09
14253;BME280;7210;51.502;10.722;2022-07-29T03:35:05;99711.22;;;15.20;90.09
14253;BME280;7210;51.502;10.722;2022-07-29T03:37:32;99711.47;;;15.18;90.32
14253;BME280;7210;51.502;10.722;2022-07-29T03:40:06;99718.38;;;15.19;90.20
14253;BME280;7210;51.502;10.722;2022-07-29T03:42:37;99720.22;;;15.14;90.46
14253;BME280;7210;51.502;10.722;2022-07-29T03:45:12;99702.28;;;15.05;90.59
14253;BME280;7210;51.502;10.722;2022-07-29T03:47:53;99711.38;;;15.09;90.32
14253;BME280;7210;51.502;10.722;2022-07-29T03:50:22;99714.59;;;15.11;89.72
14253;BME280;7210;51.502;10.722;2022-07-29T03:52:49;99702.34;;;15.10;89.16
14253;BME280;7210;51.502;10.722;2022-07-29T03:55:17;99702.63;;;15.13;88.54
14253;BME280;7210;51.502;10.722;2022-07-29T03:57:46;99708.25;;;15.17;88.22
14253;BME280;7210;51.502;10.722;2022-07-29T04:00:15;99701.31;;;15.16;88.82
14253;BME280;7210;51.502;10.722;2022-07-29T04:02:45;99697.59;;;15.17;89.45
14253;BME280;7210;51.502;10.722;2022-07-29T04:05:15;99698.38;;;15.12;89.86
14253;BME280;7210;51.502;10.722;2022-07-29T04:07:44;99699.69;;;15.14;90.25
14253;BME280;7210;51.502;10.722;2022-07-29T04:10:12;99689.34;;;15.18;90.27
14253;BME280;7210;51.502;10.722;2022-07-29T04:12:39;99696.28;;;15.19;90.43
14253;BME280;7210;51.502;10.722;2022-07-29T04:15:08;99691.28;;;15.23;90.79
14253;BME280;7210;51.502;10.722;2022-07-29T04:17:35;99687.53;;;15.23;91.98
14253;BME280;7210;51.502;10.722;2022-07-29T04:20:06;99678.06;;;15.32;91.96
14253;BME280;7210;51.502;10.722;2022-07-29T04:22:33;99685.03;;;15.38;91.76
14253;BME280;7210;51.502;10.722;2022-07-29T04:25:00;99679.69;;;15.38;91.36
14253;BME280;7210;51.502;10.722;2022-07-29T04:27:28;99691.97;;;15.44;90.87
14253;BME280;7210;51.502;10.722;2022-07-29T04:29:55;99696.78;;;15.42;90.79
14253;BME280;7210;51.502;10.722;2022-07-29T04:32:23;99705.81;;;15.41;90.85
14253;BME280;7210;51.502;10.722;2022-07-29T04:34:50;99718.63;;;15.44;90.88
14253;BME280;7210;51.502;10.722;2022-07-29T04:37:19;99728.78;;;15.47;90.83
14253;BME280;7210;51.502;10.722;2022-07-29T04:39:47;99704.28;;;15.50;90.88
14253;BME280;7210;51.502;10.722;2022-07-29T04:42:14;99708.09;;;15.59;89.45
14253;BME280;7210;51.502;10.722;2022-07-29T04:44:42;99695.88;;;15.68;88.25
14253;BME280;7210;51.502;10.722;2022-07-29T04:47:09;99703.19;;;15.83;87.58
14253;BME280;7210;51.502;10.722;2022-07-29T04:49:38;99684.84;;;15.96;86.66
14253;BME280;7210;51.502;10.722;2022-07-29T04:52:06;99690.59;;;16.20;86.11
14253;BME280;7210;51.502;10.722;2022-07-29T04:54:34;99699.69;;;16.34;85.36
14253;BME280;7210;51.502;10.722;2022-07-29T04:57:02;99703.22;;;16.44;85.16
14253;BME280;7210;51.502;10.722;2022-07-29T04:59:29;99699.56;;;16.55;85.18
14253;BME280;7210;51.502;10.722;2022-07-29T05:01:56;99698.22;;;16.63;85.22
14253;BME280;7210;51.502;10.722;2022-07-29T05:04:24;99703.84;;;16.66;85.59
14253;BME280;7210;51.502;10.722;2022-07-29T05:06:51;99702.25;;;16.70;85.65
14253;BME280;7210;51.502;10.722;2022-07-29T05:09:18;99704.94;;;16.70;86.19
14253;BME280;7210;51.502;10.722;2022-07-29T05:11:47;99705.97;;;16.69;86.18
14253;BME280;7210;51.502;10.722;2022-07-29T05:14:14;99698.81;;;16.75;85.80
14253;BME280;7210;51.502;10.722;2022-07-29T05:16:41;99698.50;;;16.76;85.35
14253;BME280;7210;51.502;10.722;2022-07-29T05:19:09;99697.47;;;16.82;84.63
14253;BME280;7210;51.502;10.722;2022-07-29T05:21:36;99701.22;;;16.91;83.57
14253;BME280;7210;51.502;10.722;2022-07-29T05:24:04;99696.19;;;17.05;83.50
14253;BME280;7210;51.502;10.722;2022-07-29T05:26:31;99696.69;;;17.12;83.82
14253;BME280;7210;51.502;10.722;2022-07-29T05:29:00;99697.25;;;17.19;84.27
14253;BME280;7210;51.502;10.722;2022-07-29T05:31:27;99695.09;;;17.26;84.91
14253;BME280;7210;51.502;10.722;2022-07-29T05:33:54;99690.56;;;17.31;85.44
14253;BME280;7210;51.502;10.722;2022-07-29T05:36:22;99692.19;;;17.32;85.76
14253;BME280;7210;51.502;10.722;2022-07-29T05:38:49;99699.44;;;17.37;85.57
14253;BME280;7210;51.502;10.722;2022-07-29T05:41:17;99692.22;;;17.42;85.39
14253;BME280;7210;51.502;10.722;2022-07-29T05:43:45;99694.34;;;17.45;85.35
14253;BME280;7210;51.502;10.722;2022-07-29T05:46:13;99683.38;;;17.52;85.46
14253;BME280;7210;51.502;10.722;2022-07-29T05:48:41;99680.44;;;17.48;83.20
14253;BME280;7210;51.502;10.722;2022-07-29T05:51:08;99681.47;;;17.62;81.68
14253;BME280;7210;51.502;10.722;2022-07-29T05:53:35;99680.41;;;17.78;80.54
14253;BME280;7210;51.502;10.722;2022-07-29T05:56:04;99671.81;;;17.86;79.66
14253;BME280;7210;51.502;10.722;2022-07-29T05:58:31;99682.44;;;18.06;78.47
14253;BME280;7210;51.502;10.722;2022-07-29T06:00:59;99681.88;;;18.14;75.97
14253;BME280;7210;51.502;10.722;2022-07-29T06:03:28;99676.78;;;18.23;74.99
14253;BME280;7210;51.502;10.722;2022-07-29T06:05:56;99682.38;;;18.26;73.43
14253;BME280;7210;51.502;10.722;2022-07-29T06:08:23;99669.53;;;18.28;72.67
14253;BME280;7210;51.502;10.722;2022-07-29T06:10:50;99674.84;;;18.38;71.86
14253;BME280;7210;51.502;10.722;2022-07-29T06:13:17;99667.38;;;18.40;71.65
14253;BME280;7210;51.502;10.722;2022-07-29T06:15:45;99678.00;;;18.50;71.44
14253;BME280;7210;51.502;10.722;2022-07-29T06:18:12;99676.91;;;18.56;70.69
14253;BME280;7210;51.502;10.722;2022-07-29T06:20:46;99669.91;;;18.65;69.92
14253;BME280;7210;51.502;10.722;2022-07-29T06:23:13;99665.03;;;18.72;69.59
14253;BME280;7210;51.502;10.722;2022-07-29T06:25:41;99656.66;;;18.84;69.33
14253;BME280;7210;51.502;10.722;2022-07-29T06:28:08;99656.81;;;18.97;68.26
14253;BME280;7210;51.502;10.722;2022-07-29T06:30:35;99656.72;;;19.12;67.75
14253;BME280;7210;51.502;10.722;2022-07-29T06:33:03;99657.72;;;19.21;66.21
14253;BME280;7210;51.502;10.722;2022-07-29T06:35:33;99649.66;;;19.26;64.54
14253;BME280;7210;51.502;10.722;2022-07-29T06:38:02;99649.56;;;19.36;64.61
14253;BME280;7210;51.502;10.722;2022-07-29T06:40:30;99653.81;;;19.42;64.88
14253;BME280;7210;51.502;10.722;2022-07-29T06:43:15;99657.50;;;19.46;64.31
14253;BME280;7210;51.502;10.722;2022-07-29T06:45:42;99661.16;;;19.55;63.87
14253;BME280;7210;51.502;10.722;2022-07-29T06:48:14;99659.66;;;19.72;63.23
14253;BME280;7210;51.502;10.722;2022-07-29T06:50:41;99658.88;;;19.95;62.29
14253;BME280;7210;51.502;10.722;2022-07-29T06:53:10;99661.94;;;20.31;60.07
14253;BME280;7210;51.502;10.722;2022-07-29T06:55:37;99669.03;;;20.64;59.62
14253;BME280;7210;51.502;10.722;2022-07-29T06:58:04;99676.59;;;20.80;58.88
14253;BME280;7210;51.502;10.722;2022-07-29T07:00:33;99683.44;;;20.91;57.68
14253;BME280;7210;51.502;10.722;2022-07-29T07:03:00;99678.84;;;21.10;57.68
14253;BME280;7210;51.502;10.722;2022-07-29T07:05:27;99678.97;;;21.19;56.67
14253;BME280;7210;51.502;10.722;2022-07-29T07:07:55;99672.81;;;21.18;56.83
14253;BME280;7210;51.502;10.722;2022-07-29T07:10:23;99679.72;;;21.24;56.91
14253;BME280;7210;51.502;10.722;2022-07-29T07:12:51;99684.22;;;21.29;55.73
14253;BME280;7210;51.502;10.722;2022-07-29T07:15:18;99674.19;;;21.16;55.09
14253;BME280;7210;51.502;10.722;2022-07-29T07:17:47;99683.19;;;21.25;55.47
14253;BME280;7210;51.502;10.722;2022-07-29T07:20:15;99686.19;;;21.23;55.64
14253;BME280;7210;51.502;10.722;2022-07-29T07:22:43;99690.00;;;21.36;55.69
14253;BME280;7210;51.502;10.722;2022-07-29T07:25:11;99687.84;;;21.51;55.42
14253;BME280;7210;51.502;10.722;2022-07-29T07:27:39;99697.03;;;21.50;54.14
14253;BME280;7210;51.502;10.722;2022-07-29T07:30:08;99686.06;;;21.60;53.58
14253;BME280;7210;51.502;10.722;2022-07-29T07:32:36;99681.53;;;21.74;53.34
14253;BME280;7210;51.502;10.722;2022-07-29T07:35:05;99687.06;;;22.10;53.03
14253;BME280;7210;51.502;10.722;2022-07-29T07:37:33;99691.03;;;22.26;53.06
14253;BME280;7210;51.502;10.722;2022-07-29T07:40:01;99686.97;;;22.42;52.11
14253;BME280;7210;51.502;10.722;2022-07-29T07:42:29;99689.16;;;22.67;51.76
14253;BME280;7210;51.502;10.722;2022-07-29T07:44:57;99691.31;;;22.65;50.91
14253;BME280;7210;51.502;10.722;2022-07-29T07:47:25;99689.88;;;22.81;50.59
14253;BME280;7210;51.502;10.722;2022-07-29T07:49:53;99697.22;;;23.16;51.18
14253;BME280;7210;51.502;10.722;2022-07-29T07:52:21;99696.00;;;23.22;49.43
14253;BME280;7210;51.502;10.722;2022-07-29T07:54:49;99692.03;;;23.28;49.67
14253;BME280;7210;51.502;10.722;2022-07-29T07:57:16;99699.19;;;23.24;48.93
14253;BME280;7210;51.502;10.722;2022-07-29T07:59:43;99702.00;;;23.05;49.53
14253;BME280;7210;51.502;10.722;2022-07-29T08:02:12;99708.94;;;22.98;50.22
14253;BME280;7210;51.502;10.722;2022-07-29T08:04:39;99713.09;;;23.04;50.29
14253;BME280;7210;51.502;10.722;2022-07-29T08:07:07;99703.66;;;22.93;50.23
14253;BME280;7210;51.502;10.722;2022-07-29T08:09:35;99707.66;;;22.95;49.79
14253;BME280;7210;51.502;10.722;2022-07-29T08:12:04;99709.06;;;22.93;50.36
14253;BME280;7210;51.502;10.722;2022-07-29T08:14:32;99715.66;;;22.87;49.60
14253;BME280;7210;51.502;10.722;2022-07-29T08:17:00;99715.41;;;22.97;49.33
14253;BME280;7210;51.502;10.722;2022-07-29T08:19:28;99716.28;;;23.19;49.50
14253;BME280;7210;51.502;10.722;2022-07-29T08:21:56;99728.06;;;23.45;49.74
14253;BME280;7210;51.502;10.722;2022-07-29T08:24:23;99720.06;;;23.62;50.00
14253;BME280;7210;51.502;10.722;2022-07-29T08:27:08;99720.25;;;23.88;49.58
14253;BME280;7210;51.502;10.722;2022-07-29T08:29:35;99718.88;;;23.98;48.57
14253;BME280;7210;51.502;10.722;2022-07-29T08:32:04;99715.00;;;24.21;48.42
14253;BME280;7210;51.502;10.722;2022-07-29T08:34:33;99713.91;;;24.22;48.12
14253;BME280;7210;51.502;10.722;2022-07-29T08:37:00;99720.47;;;24.38;47.94
14253;BME280;7210;51.502;10.722;2022-07-29T08:39:27;99725.56;;;24.48;47.12
14253;BME280;7210;51.502;10.722;2022-07-29T08:41:54;99726.88;;;24.51;47.29
14253;BME280;7210;51.502;10.722;2022-07-29T08:44:22;99729.00;;;24.71;46.09
14253;BME280;7210;51.502;10.722;2022-07-29T08:46:49;99729.50;;;24.81;46.37
14253;BME280;7210;51.502;10.722;2022-07-29T08:49:17;99739.72;;;25.18;45.94
14253;BME280;7210;51.502;10.722;2022-07-29T08:51:46;99738.16;;;25.26;45.67
14253;BME280;7210;51.502;10.722;2022-07-29T08:54:17;99741.91;;;25.67;45.69
14253;BME280;7210;51.502;10.722;2022-07-29T08:56:48;99733.78;;;25.84;45.13
14253;BME280;7210;51.502;10.722;2022-07-29T08:59:25;99740.09;;;26.05;43.24
14253;BME280;7210;51.502;10.722;2022-07-29T09:01:57;99729.06;;;26.10;43.04
14253;BME280;7210;51.502;10.722;2022-07-29T09:04:30;99727.56;;;26.30;42.83
14253;BME280;7210;51.502;10.722;2022-07-29T09:07:04;99740.28;;;26.38;42.24
14253;BME280;7210;51.502;10.722;2022-07-29T09:09:33;99731.88;;;26.22;42.93
14253;BME280;7210;51.502;10.722;2022-07-29T09:12:01;99729.66;;;26.24;42.37
14253;BME280;7210;51.502;10.722;2022-07-29T09:14:29;99730.97;;;26.18;42.82
14253;BME280;7210;51.502;10.722;2022-07-29T09:17:00;99729.00;;;26.27;43.55
14253;BME280;7210;51.502;10.722;2022-07-29T09:19:30;99730.31;;;26.50;43.64
14253;BME280;7210;51.502;10.722;2022-07-29T09:22:00;99732.06;;;26.55;42.31
14253;BME280;7210;51.502;10.722;2022-07-29T09:24:40;99721.19;;;26.63;42.35
14253;BME280;7210;51.502;10.722;2022-07-29T09:27:20;99733.25;;;26.74;42.40
14253;BME280;7210;51.502;10.722;2022-07-29T09:29:55;99729.78;;;26.65;42.21
14253;BME280;7210;51.502;10.722;2022-07-29T09:32:23;99723.41;;;26.61;42.35
14253;BME280;7210;51.502;10.722;2022-07-29T09:34:51;99722.78;;;26.64;42.21
14253;BME280;7210;51.502;10.722;2022-07-29T09:37:26;99714.19;;;26.62;42.35
14253;BME280;7210;51.502;10.722;2022-07-29T09:39:55;99713.09;;;26.75;41.86
14253;BME280;7210;51.502;10.722;2022-07-29T09:42:31;99724.69;;;26.84;42.62
14253;BME280;7210;51.502;10.722;2022-07-29T09:44:59;99716.31;;;26.77;41.85
14253;BME280;7210;51.502;10.722;2022-07-29T09:47:42;99731.81;;;26.97;41.17
14253;BME280;7210;51.502;10.722;2022-07-29T09:50:13;99724.78;;;26.96;42.14
14253;BME280;7210;51.502;10.722;2022-07-29T09:52:50;99722.38;;;26.95;41.51
14253;BME280;7210;51.502;10.722;2022-07-29T09:55:19;99722.47;;;26.86;41.21
14253;BME280;7210;51.502;10.722;2022-07-29T09:57:47;99722.97;;;26.59;40.94
14253;BME280;7210;51.502;10.722;2022-07-29T10:00:17;99717.50;;;26.30;40.70
14253;BME280;7210;51.502;10.722;2022-07-29T10:02:47;99721.03;;;26.22;41.09
14253;BME280;7210;51.502;10.722;2022-07-29T10:05:20;99725.03;;;26.25;41.24
14253;BME280;7210;51.502;10.722;2022-07-29T10:07:53;99720.88;;;26.19;41.60
14253;BME280;7210;51.502;10.722;2022-07-29T10:10:26;99712.97;;;26.14;42.11
14253;BME280;7210;51.502;10.722;2022-07-29T10:12:56;99706.44;;;26.06;41.19
14253;BME280;7210;51.502;10.722;2022-07-29T10:15:25;99714.84;;;26.13;41.49
14253;BME280;7210;51.502;10.722;2022-07-29T10:17:55;99714.41;;;26.11;42.10
14253;BME280;7210;51.502;10.722;2022-07-29T10:20:24;99710.28;;;26.05;41.96
14253;BME280;7210;51.502;10.722;2022-07-29T10:22:52;99723.38;;;26.03;41.63
14253;BME280;7210;51.502;10.722;2022-07-29T10:25:23;99718.75;;;26.04;42.07
14253;BME280;7210;51.502;10.722;2022-07-29T10:27:51;99724.66;;;25.97;41.86
14253;BME280;7210;51.502;10.722;2022-07-29T10:30:21;99723.72;;;25.93;41.92
14253;BME280;7210;51.502;10.722;2022-07-29T10:33:10;99720.22;;;25.84;42.50
14253;BME280;7210;51.502;10.722;2022-07-29T10:36:04;99719.56;;;25.87;42.03
14253;BME280;7210;51.502;10.722;2022-07-29T10:38:45;99729.25;;;26.05;41.83
14253;BME280;7210;51.502;10.722;2022-07-29T10:41:46;99730.88;;;26.35;42.48
14253;BME280;7210;51.502;10.722;2022-07-29T10:44:19;99733.50;;;26.81;42.17
14253;BME280;7210;51.502;10.722;2022-07-29T10:46:47;99743.09;;;27.28;41.34
14253;BME280;7210;51.502;10.722;2022-07-29T10:49:16;99733.00;;;27.49;40.59
14253;BME280;7210;51.502;10.722;2022-07-29T10:52:05;99742.56;;;28.12;40.27
14253;BME280;7210;51.502;10.722;2022-07-29T10:54:48;99731.84;;;28.39;38.71
14253;BME280;7210;51.502;10.722;2022-07-29T10:57:26;99734.59;;;28.63;38.23
14253;BME280;7210;51.502;10.722;2022-07-29T11:00:29;99734.09;;;28.73;37.00
14253;BME280;7210;51.502;10.722;2022-07-29T11:02:59;99738.84;;;29.00;36.72
14253;BME280;7210;51.502;10.722;2022-07-29T11:05:27;99742.41;;;29.16;37.28
14253;BME280;7210;51.502;10.722;2022-07-29T11:08:23;99747.13;;;29.43;35.64
14253;BME280;7210;51.502;10.722;2022-07-29T11:14:03;99748.91;;;29.94;34.53
14253;BME280;7210;51.502;10.722;2022-07-29T11:17:00;99744.75;;;30.12;33.96
14253;BME280;7210;51.502;10.722;2022-07-29T11:19:31;99748.66;;;29.99;32.96
14253;BME280;7210;51.502;10.722;2022-07-29T11:21:59;99749.69;;;29.79;33.90
14253;BME280;7210;51.502;10.722;2022-07-29T11:24:29;99742.28;;;29.64;33.59
14253;BME280;7210;51.502;10.722;2022-07-29T11:27:13;99752.38;;;29.63;33.92
14253;BME280;7210;51.502;10.722;2022-07-29T11:29:51;99752.38;;;29.63;34.21
14253;BME280;7210;51.502;10.722;2022-07-29T11:32:20;99767.75;;;29.83;34.36
14253;BME280;7210;51.502;10.722;2022-07-29T11:35:09;99757.03;;;29.63;33.65
14253;BME280;7210;51.502;10.722;2022-07-29T11:37:37;99759.81;;;29.51;34.10
14253;BME280;7210;51.502;10.722;2022-07-29T11:40:16;99769.81;;;29.74;34.44
14253;BME280;7210;51.502;10.722;2022-07-29T11:42:49;99757.41;;;29.49;33.91
14253;BME280;7210;51.502;10.722;2022-07-29T11:45:21;99766.34;;;29.62;34.69
14253;BME280;7210;51.502;10.722;2022-07-29T11:47:53;99759.94;;;29.42;34.73
14253;BME280;7210;51.502;10.722;2022-07-29T11:50:31;99762.47;;;29.63;34.53
14253;BME280;7210;51.502;10.722;2022-07-29T11:53:00;99762.84;;;29.61;34.63
14253;BME280;7210;51.502;10.722;2022-07-29T11:55:29;99766.00;;;29.91;34.83
14253;BME280;7210;51.502;10.722;2022-07-29T11:57:59;99765.47;;;30.01;34.26
14253;BME280;7210;51.502;10.722;2022-07-29T12:00:36;99766.91;;;30.10;34.01
14253;BME280;7210;51.502;10.722;2022-07-29T12:03:06;99767.00;;;30.14;33.79
14253;BME280;7210;51.502;10.722;2022-07-29T12:05:38;99752.22;;;30.15;33.00
14253;BME280;7210;51.502;10.722;2022-07-29T12:08:13;99767.81;;;30.30;34.51
14253;BME280;7210;51.502;10.722;2022-07-29T12:10:41;99771.56;;;30.41;34.09
14253;BME280;7210;51.502;10.722;2022-07-29T12:13:10;99765.34;;;30.40;33.70
14253;BME280;7210;51.502;10.722;2022-07-29T12:15:40;99767.44;;;30.47;33.60
14253;BME280;7210;51.502;10.722;2022-07-29T12:18:20;99772.19;;;30.34;32.81
14253;BME280;7210;51.502;10.722;2022-07-29T12:20:56;99767.88;;;30.18;33.08
14253;BME280;7210;51.502;10.722;2022-07-29T12:23:23;99773.28;;;30.14;33.79
14253;BME280;7210;51.502;10.722;2022-07-29T12:25:50;99775.28;;;30.17;33.71
14253;BME280;7210;51.502;10.722;2022-07-29T12:28:18;99772.97;;;30.04;33.55
14253;BME280;7210;51.502;10.722;2022-07-29T12:30:50;99760.59;;;29.79;33.31
14253;BME280;7210;51.502;10.722;2022-07-29T12:33:21;99763.06;;;29.84;33.66
14253;BME280;7210;51.502;10.722;2022-07-29T12:35:59;99768.19;;;29.85;33.35
14253;BME280;7210;51.502;10.722;2022-07-29T12:38:28;99776.84;;;30.03;34.54
14253;BME280;7210;51.502;10.722;2022-07-29T12:40:55;99776.59;;;30.08;34.51
14253;BME280;7210;51.502;10.722;2022-07-29T12:43:24;99770.88;;;30.13;33.38
14253;BME280;7210;51.502;10.722;2022-07-29T12:45:55;99774.41;;;30.29;34.05
14253;BME280;7210;51.502;10.722;2022-07-29T12:48:34;99773.41;;;30.52;32.79
14253;BME280;7210;51.502;10.722;2022-07-29T12:51:04;99767.88;;;30.49;34.03
14253;BME280;7210;51.502;10.722;2022-07-29T12:53:34;99775.28;;;30.64;33.79
14253;BME280;7210;51.502;10.722;2022-07-29T12:56:04;99765.91;;;30.96;34.03
14253;BME280;7210;51.502;10.722;2022-07-29T12:58:35;99769.38;;;31.12;32.57
14253;BME280;7210;51.502;10.722;2022-07-29T13:01:08;99754.09;;;30.92;30.98
14253;BME280;7210;51.502;10.722;2022-07-29T13:03:50;99767.72;;;30.73;31.72
14253;BME280;7210;51.502;10.722;2022-07-29T13:06:36;99760.13;;;30.51;32.17
14253;BME280;7210;51.502;10.722;2022-07-29T13:09:08;99750.63;;;30.45;32.60
14253;BME280;7210;51.502;10.722;2022-07-29T13:11:40;99752.41;;;30.22;32.90
14253;BME280;7210;51.502;10.722;2022-07-29T13:14:09;99756.91;;;30.14;33.22
14253;BME280;7210;51.502;10.722;2022-07-29T13:17:03;99768.78;;;30.22;33.86
14253;BME280;7210;51.502;10.722;2022-07-29T13:19:36;99761.56;;;30.14;33.72
14253;BME280;7210;51.502;10.722;2022-07-29T13:22:06;99754.91;;;29.99;34.01
14253;BME280;7210;51.502;10.722;2022-07-29T13:24:44;99764.16;;;29.95;34.24
14253;BME280;7210;51.502;10.722;2022-07-29T13:27:13;99758.69;;;29.95;34.44
14253;BME280;7210;51.502;10.722;2022-07-29T13:29:40;99754.63;;;29.89;34.40